Cathma — PJTL — position and weather

sailwx.info

Track history (hours):
 
Tides and Currents Weather Stations Pressure Air Temp Water Temp Dewpoint Dewpoint Depression Visibility Wind Speed Wind Dir Waves Ship Positions

Cathma

Last reported at 2017-Nov-24 09:41 UTC. Time now 2017-Nov-24 16:25 UTC.
Position N 53°21' W 006°13'.

Length 112 m; draft 3.9 m.

Type: Cargo ship. MMSI: 306832000.

Date/timePositionNaut miles runAvg speedWind from/ knotsBaromVisibWave heightAir tempDewpointWater temp
2017-Nov-24 09:41N 53°21' W 006°13'0 0.0
2017-Nov-24 09:11N 53°21' W 006°13'0 0.0
2017-Nov-24 08:59N 53°21' W 006°13'0 0.0
2017-Nov-23 18:11N 53°21' W 006°13'0 0.0
2017-Nov-23 17:19N 53°21' W 006°13'0 0.0
2017-Nov-23 15:34N 53°21' W 006°13'0 0.0
2017-Nov-23 15:24N 53°21' W 006°13'  
2017-Nov-20 00:29N 52°16' W 007°02'0 0.0
2017-Nov-19 23:59N 52°16' W 007°02'0 0.0
2017-Nov-19 23:23N 52°16' W 007°02'0 0.0
2017-Nov-19 23:00N 52°16' W 007°02'1 2.5
2017-Nov-19 22:30N 52°17' W 007°00'3 6.1
2017-Nov-19 22:00N 52°14' W 006°57'4 7.9
2017-Nov-19 21:30N 52°10' W 006°57'4 8.0
2017-Nov-19 21:00N 52°06' W 006°56'5 9.9
2017-Nov-19 20:30N 52°02' W 006°53'5 9.9
2017-Nov-19 20:00N 51°57' W 006°51'510.7
2017-Nov-19 19:30N 51°52' W 006°47'2111.2
2017-Nov-19 17:40N 51°33' W 006°36'311.1
2017-Nov-19 17:25N 51°30' W 006°34'511.1
2017-Nov-19 17:00N 51°26' W 006°32'5510.9
2017-Nov-19 11:55N 50°34' W 006°01'511.0
2017-Nov-19 11:28N 50°29' W 005°58'510.8
2017-Nov-19 10:58N 50°24' W 005°55'510.6
2017-Nov-19 10:30N 50°20' W 005°52'510.1
2017-Nov-19 10:00N 50°15' W 005°52'42 7.3
2017-Nov-19 04:16N 49°53' W 004°56'3 9.3
2017-Nov-19 03:58N 49°53' W 004°52'5 9.6
2017-Nov-19 03:28N 49°54' W 004°44'7 9.8
2017-Nov-19 02:43N 49°55' W 004°33'210.1
2017-Nov-19 02:30N 49°55' W 004°29'910.4
2017-Nov-19 01:36N 49°56' W 004°15'1811.0
2017-Nov-18 23:56N 49°57' W 003°46'511.2
2017-Nov-18 23:30N 49°58' W 003°39'611.0
2017-Nov-18 22:59N 49°58' W 003°30'510.7
2017-Nov-18 22:30N 49°59' W 003°22'510.2
2017-Nov-18 22:00N 49°59' W 003°14'5 9.6
2017-Nov-18 21:30N 49°60' W 003°07'5 9.1
2017-Nov-18 21:00N 50°00' W 002°60'5 8.4
2017-Nov-18 20:28N 50°01' W 002°53'4 8.0
2017-Nov-18 19:58N 50°02' W 002°47'4 7.5
2017-Nov-18 19:26N 50°03' W 002°41'3 7.6
2017-Nov-18 19:00N 50°04' W 002°36'34 9.2
2017-Nov-18 15:22N 50°13' W 001°46'412.2
2017-Nov-18 15:00N 50°15' W 001°39'612.6
2017-Nov-18 14:30N 50°16' W 001°30'4411.7
2017-Nov-18 10:46N 50°28' W 000°24'2 9.7
2017-Nov-18 10:30N 50°29' W 000°20'5 9.3
2017-Nov-18 10:01N 50°30' W 000°13'4 8.9
2017-Nov-18 09:30N 50°31' W 000°06'4 8.5
2017-Nov-18 09:00N 50°32' E 000°00'4 8.2
2017-Nov-18 08:30N 50°33' E 000°07'4 8.3
2017-Nov-18 08:01N 50°34' E 000°13'4 8.3
2017-Nov-18 07:31N 50°35' E 000°19'4 8.9
2017-Nov-18 07:00N 50°36' E 000°26'5 9.7
2017-Nov-18 06:30N 50°37' E 000°34'510.3
2017-Nov-18 06:00N 50°40' E 000°41'611.3
2017-Nov-18 05:30N 50°44' E 000°48'611.7
2017-Nov-18 04:59N 50°48' E 000°55'1411.5
2017-Nov-18 03:47N 50°56' E 001°12'411.1
2017-Nov-18 03:27N 50°59' E 001°17'510.7
2017-Nov-18 02:58N 51°02' E 001°23'510.1
2017-Nov-18 02:30N 51°05' E 001°29'4 9.0
2017-Nov-18 02:01N 51°08' E 001°34'4 8.3
2017-Nov-18 01:31N 51°11' E 001°39'4 8.2
2017-Nov-18 01:01N 51°13' E 001°44'4 8.0
2017-Nov-18 00:31N 51°16' E 001°48'4 8.6
2017-Nov-18 00:00N 51°20' E 001°51'5 9.0
2017-Nov-17 23:30N 51°24' E 001°55'5 9.9
2017-Nov-17 23:00N 51°28' E 001°59'510.5
2017-Nov-17 22:30N 51°32' E 002°04'611.0
2017-Nov-17 22:00N 51°37' E 002°10'611.5
2017-Nov-17 21:30N 51°41' E 002°16'257 9.3
2017-Nov-16 17:52N 54°00' E 008°13'2 6.9
2017-Nov-16 17:30N 54°00' E 008°17'611.4
2017-Nov-16 17:00N 53°59' E 008°27'612.5
2017-Nov-16 16:30N 53°57' E 008°37'714.1
2017-Nov-16 16:00N 53°52' E 008°44'713.5
2017-Nov-16 15:30N 53°51' E 008°55'713.5
2017-Nov-16 15:00N 53°53' E 009°06'611.2
2017-Nov-16 14:30N 53°52' E 009°16'611.7
2017-Nov-16 14:00N 53°48' E 009°23'510.3
2017-Nov-16 13:30N 53°44' E 009°27'5 9.3
2017-Nov-16 13:00N 53°40' E 009°31'4 8.8
2017-Nov-16 12:31N 53°36' E 009°35'4 8.6
2017-Nov-16 12:00N 53°34' E 009°42'4 8.4
2017-Nov-16 11:30N 53°33' E 009°49'4 8.1
2017-Nov-16 11:00N 53°33' E 009°55'3 4.9
2017-Nov-16 10:29N 53°30' E 009°57'0 0.0
2017-Nov-16 09:59N 53°30' E 009°57'0 0.0
2017-Nov-16 09:29N 53°30' E 009°57'0 0.0
2017-Nov-16 08:59N 53°30' E 009°57'0 0.0
2017-Nov-16 08:28N 53°30' E 009°57'0 0.0
2017-Nov-16 07:58N 53°30' E 009°57'0 0.0
2017-Nov-16 07:25N 53°30' E 009°57'0 0.0
2017-Nov-16 06:58N 53°30' E 009°57'0 0.0
2017-Nov-16 06:28N 53°30' E 009°57'0 0.0
2017-Nov-16 06:00N 53°30' E 009°57'0 0.0
2017-Nov-16 05:30N 53°30' E 009°57'0 0.0
2017-Nov-16 05:00N 53°30' E 009°57'0 0.0
2017-Nov-16 04:30N 53°30' E 009°57'0 0.0
2017-Nov-16 04:00N 53°30' E 009°57'0 0.0
2017-Nov-16 03:29N 53°30' E 009°57'0 0.0
2017-Nov-16 02:59N 53°30' E 009°57'0 0.0
2017-Nov-16 02:29N 53°30' E 009°57'0 0.0
2017-Nov-16 01:59N 53°30' E 009°57'0 0.0
2017-Nov-16 01:29N 53°30' E 009°57'0 0.0
2017-Nov-16 00:55N 53°30' E 009°57'0 0.0
2017-Nov-16 00:28N 53°30' E 009°57'0 0.0
2017-Nov-15 23:58N 53°30' E 009°57'0 0.0
2017-Nov-15 23:28N 53°30' E 009°57'0 0.0
2017-Nov-15 23:00N 53°30' E 009°57'0 0.0
2017-Nov-15 22:30N 53°30' E 009°57'0 0.0
2017-Nov-15 21:57N 53°30' E 009°57'0 0.0
2017-Nov-15 21:30N 53°30' E 009°57'0 0.0
2017-Nov-15 21:00N 53°30' E 009°57'0 0.0
2017-Nov-15 20:29N 53°30' E 009°57'0 0.0
2017-Nov-15 19:59N 53°30' E 009°57'0 0.0
2017-Nov-15 19:29N 53°30' E 009°57'0 0.0
2017-Nov-15 18:59N 53°30' E 009°57'0 0.0
2017-Nov-15 18:28N 53°30' E 009°57'0 0.0
2017-Nov-15 17:58N 53°30' E 009°57'0 0.0
2017-Nov-15 17:28N 53°30' E 009°57'0 0.0
2017-Nov-15 16:58N 53°30' E 009°57'0 0.0
2017-Nov-15 16:28N 53°30' E 009°57'0 0.0
2017-Nov-15 16:00N 53°30' E 009°57'0 0.0
2017-Nov-15 15:30N 53°30' E 009°57'0 0.0
2017-Nov-15 15:00N 53°30' E 009°57'0 0.0
2017-Nov-15 14:30N 53°30' E 009°57'0 0.0
2017-Nov-15 14:00N 53°30' E 009°57'0 0.0
2017-Nov-15 13:29N 53°30' E 009°57'0 0.0
2017-Nov-15 12:59N 53°30' E 009°57'0 0.0
2017-Nov-15 12:29N 53°30' E 009°57'0 0.0
2017-Nov-15 11:56N 53°30' E 009°57'0 0.0
2017-Nov-15 11:28N 53°30' E 009°57'0 0.0
2017-Nov-15 10:58N 53°30' E 009°57'0 0.5
2017-Nov-15 10:30N 53°30' E 009°57'3 6.2
2017-Nov-15 10:01N 53°32' E 009°53'5 9.6
2017-Nov-15 09:31N 53°34' E 009°45'510.7
2017-Nov-15 09:01N 53°35' E 009°37'611.8
2017-Nov-15 08:30N 53°40' E 009°31'713.4
2017-Nov-15 08:00N 53°45' E 009°24'713.8
2017-Nov-15 07:30N 53°51' E 009°18'612.9
2017-Nov-15 07:00N 53°53' E 009°08'612.5
2017-Nov-15 06:30N 53°51' E 008°58'612.3
2017-Nov-15 06:01N 53°50' E 008°47'611.3
2017-Nov-15 05:30N 53°55' E 008°41'611.5
2017-Nov-15 05:00N 53°58' E 008°33'612.0
2017-Nov-15 04:30N 53°59' E 008°23'612.7
2017-Nov-15 04:01N 53°60' E 008°12'510.4
2017-Nov-15 03:30N 53°58' E 008°04'612.1
2017-Nov-15 03:00N 53°54' E 007°55'5 5.3
2017-Nov-15 02:05N 53°51' E 008°01'112.6
2017-Nov-15 02:00N 53°51' E 008°03'713.5
2017-Nov-15 01:30N 53°46' E 008°11'714.3
2017-Nov-15 01:00N 53°42' E 008°21'714.6
2017-Nov-15 00:30N 53°37' E 008°30'611.3
2017-Nov-15 00:00N 53°31' E 008°34'611.1
2017-Nov-14 23:30N 53°26' E 008°30'612.1
2017-Nov-14 23:00N 53°20' E 008°30'0 0.2
2017-Nov-14 22:30N 53°20' E 008°30'0 0.0
2017-Nov-14 22:00N 53°20' E 008°30'0 0.0
2017-Nov-14 21:27N 53°20' E 008°30'0 0.0
2017-Nov-14 20:56N 53°20' E 008°30'0 0.0
2017-Nov-14 20:29N 53°20' E 008°30'0 0.0
2017-Nov-14 19:59N 53°20' E 008°30'0 0.0
2017-Nov-14 19:29N 53°20' E 008°30'0 0.0
2017-Nov-14 18:59N 53°20' E 008°30'0 0.0
2017-Nov-14 18:28N 53°20' E 008°30'0 0.0
2017-Nov-14 17:58N 53°20' E 008°30'0 0.0
2017-Nov-14 17:28N 53°20' E 008°30'0 0.0
2017-Nov-14 16:58N 53°20' E 008°30'0 0.0
2017-Nov-14 16:27N 53°20' E 008°30'0 0.0
2017-Nov-14 15:57N 53°20' E 008°30'0 0.0
2017-Nov-14 15:30N 53°20' E 008°30'0 0.0
2017-Nov-14 15:00N 53°20' E 008°30'0 0.0
2017-Nov-14 14:30N 53°20' E 008°30'0 0.0
2017-Nov-14 13:56N 53°20' E 008°30'0 0.0
2017-Nov-14 13:29N 53°20' E 008°30'0 0.0
2017-Nov-14 12:59N 53°20' E 008°30'0 0.0
2017-Nov-14 12:29N 53°20' E 008°30'0 0.0
2017-Nov-14 11:59N 53°20' E 008°30'0 0.0
2017-Nov-14 11:22N 53°20' E 008°30'0 0.0
2017-Nov-14 10:55N 53°20' E 008°30'0 0.0
2017-Nov-14 10:28N 53°20' E 008°30'0 0.0
2017-Nov-14 09:58N 53°20' E 008°30'  
Track history (hours):
 
Tides and Currents Weather Stations Pressure Air Temp Water Temp Dewpoint Dewpoint Depression Visibility Wind Speed Wind Dir Waves Ship Positions

Cathma

Last reported at 2017-Nov-24 09:41 UTC. Time now 2017-Nov-24 16:25 UTC.
Position N 53°21' W 006°13'.

Length 112 m; draft 3.9 m.

Type: Cargo ship. MMSI: 306832000.

Date/timePositionNaut miles runAvg speedWind from/ knotsBaromVisibWave heightAir tempDewpointWater temp
2017-Nov-24 09:41N 53°21' W 006°13'0 0.0
2017-Nov-24 09:11N 53°21' W 006°13'0 0.0
2017-Nov-24 08:59N 53°21' W 006°13'0 0.0
2017-Nov-23 18:11N 53°21' W 006°13'0 0.0
2017-Nov-23 17:19N 53°21' W 006°13'0 0.0
2017-Nov-23 15:34N 53°21' W 006°13'0 0.0
2017-Nov-23 15:24N 53°21' W 006°13'  
2017-Nov-20 00:29N 52°16' W 007°02'0 0.0
2017-Nov-19 23:59N 52°16' W 007°02'0 0.0
2017-Nov-19 23:23N 52°16' W 007°02'0 0.0
2017-Nov-19 23:00N 52°16' W 007°02'1 2.5
2017-Nov-19 22:30N 52°17' W 007°00'3 6.1
2017-Nov-19 22:00N 52°14' W 006°57'4 7.9
2017-Nov-19 21:30N 52°10' W 006°57'4 8.0
2017-Nov-19 21:00N 52°06' W 006°56'5 9.9
2017-Nov-19 20:30N 52°02' W 006°53'5 9.9
2017-Nov-19 20:00N 51°57' W 006°51'510.7
2017-Nov-19 19:30N 51°52' W 006°47'2111.2
2017-Nov-19 17:40N 51°33' W 006°36'311.1
2017-Nov-19 17:25N 51°30' W 006°34'511.1
2017-Nov-19 17:00N 51°26' W 006°32'5510.9
2017-Nov-19 11:55N 50°34' W 006°01'511.0
2017-Nov-19 11:28N 50°29' W 005°58'510.8
2017-Nov-19 10:58N 50°24' W 005°55'510.6
2017-Nov-19 10:30N 50°20' W 005°52'510.1
2017-Nov-19 10:00N 50°15' W 005°52'42 7.3
2017-Nov-19 04:16N 49°53' W 004°56'3 9.3
2017-Nov-19 03:58N 49°53' W 004°52'5 9.6
2017-Nov-19 03:28N 49°54' W 004°44'7 9.8
2017-Nov-19 02:43N 49°55' W 004°33'210.1
2017-Nov-19 02:30N 49°55' W 004°29'910.4
2017-Nov-19 01:36N 49°56' W 004°15'1811.0
2017-Nov-18 23:56N 49°57' W 003°46'511.2
2017-Nov-18 23:30N 49°58' W 003°39'611.0
2017-Nov-18 22:59N 49°58' W 003°30'510.7
2017-Nov-18 22:30N 49°59' W 003°22'510.2
2017-Nov-18 22:00N 49°59' W 003°14'5 9.6
2017-Nov-18 21:30N 49°60' W 003°07'5 9.1
2017-Nov-18 21:00N 50°00' W 002°60'5 8.4
2017-Nov-18 20:28N 50°01' W 002°53'4 8.0
2017-Nov-18 19:58N 50°02' W 002°47'4 7.5
2017-Nov-18 19:26N 50°03' W 002°41'3 7.6
2017-Nov-18 19:00N 50°04' W 002°36'34 9.2
2017-Nov-18 15:22N 50°13' W 001°46'412.2
2017-Nov-18 15:00N 50°15' W 001°39'612.6
2017-Nov-18 14:30N 50°16' W 001°30'4411.7
2017-Nov-18 10:46N 50°28' W 000°24'2 9.7
2017-Nov-18 10:30N 50°29' W 000°20'5 9.3
2017-Nov-18 10:01N 50°30' W 000°13'4 8.9
2017-Nov-18 09:30N 50°31' W 000°06'4 8.5
2017-Nov-18 09:00N 50°32' E 000°00'4 8.2
2017-Nov-18 08:30N 50°33' E 000°07'4 8.3
2017-Nov-18 08:01N 50°34' E 000°13'4 8.3
2017-Nov-18 07:31N 50°35' E 000°19'4 8.9
2017-Nov-18 07:00N 50°36' E 000°26'5 9.7
2017-Nov-18 06:30N 50°37' E 000°34'510.3
2017-Nov-18 06:00N 50°40' E 000°41'611.3
2017-Nov-18 05:30N 50°44' E 000°48'611.7
2017-Nov-18 04:59N 50°48' E 000°55'1411.5
2017-Nov-18 03:47N 50°56' E 001°12'411.1
2017-Nov-18 03:27N 50°59' E 001°17'510.7
2017-Nov-18 02:58N 51°02' E 001°23'510.1
2017-Nov-18 02:30N 51°05' E 001°29'4 9.0
2017-Nov-18 02:01N 51°08' E 001°34'4 8.3
2017-Nov-18 01:31N 51°11' E 001°39'4 8.2
2017-Nov-18 01:01N 51°13' E 001°44'4 8.0
2017-Nov-18 00:31N 51°16' E 001°48'4 8.6
2017-Nov-18 00:00N 51°20' E 001°51'5 9.0
2017-Nov-17 23:30N 51°24' E 001°55'5 9.9
2017-Nov-17 23:00N 51°28' E 001°59'510.5
2017-Nov-17 22:30N 51°32' E 002°04'611.0
2017-Nov-17 22:00N 51°37' E 002°10'611.5
2017-Nov-17 21:30N 51°41' E 002°16'257 9.3
2017-Nov-16 17:52N 54°00' E 008°13'2 6.9
2017-Nov-16 17:30N 54°00' E 008°17'611.4
2017-Nov-16 17:00N 53°59' E 008°27'612.5
2017-Nov-16 16:30N 53°57' E 008°37'714.1
2017-Nov-16 16:00N 53°52' E 008°44'713.5
2017-Nov-16 15:30N 53°51' E 008°55'713.5
2017-Nov-16 15:00N 53°53' E 009°06'611.2
2017-Nov-16 14:30N 53°52' E 009°16'611.7
2017-Nov-16 14:00N 53°48' E 009°23'510.3
2017-Nov-16 13:30N 53°44' E 009°27'5 9.3
2017-Nov-16 13:00N 53°40' E 009°31'4 8.8
2017-Nov-16 12:31N 53°36' E 009°35'4 8.6
2017-Nov-16 12:00N 53°34' E 009°42'4 8.4
2017-Nov-16 11:30N 53°33' E 009°49'4 8.1
2017-Nov-16 11:00N 53°33' E 009°55'3 4.9
2017-Nov-16 10:29N 53°30' E 009°57'0 0.0
2017-Nov-16 09:59N 53°30' E 009°57'0 0.0
2017-Nov-16 09:29N 53°30' E 009°57'0 0.0
2017-Nov-16 08:59N 53°30' E 009°57'0 0.0
2017-Nov-16 08:28N 53°30' E 009°57'0 0.0
2017-Nov-16 07:58N 53°30' E 009°57'0 0.0
2017-Nov-16 07:25N 53°30' E 009°57'0 0.0
2017-Nov-16 06:58N 53°30' E 009°57'0 0.0
2017-Nov-16 06:28N 53°30' E 009°57'0 0.0
2017-Nov-16 06:00N 53°30' E 009°57'0 0.0
2017-Nov-16 05:30N 53°30' E 009°57'0 0.0
2017-Nov-16 05:00N 53°30' E 009°57'0 0.0
2017-Nov-16 04:30N 53°30' E 009°57'0 0.0
2017-Nov-16 04:00N 53°30' E 009°57'0 0.0
2017-Nov-16 03:29N 53°30' E 009°57'0 0.0
2017-Nov-16 02:59N 53°30' E 009°57'0 0.0
2017-Nov-16 02:29N 53°30' E 009°57'0 0.0
2017-Nov-16 01:59N 53°30' E 009°57'0 0.0
2017-Nov-16 01:29N 53°30' E 009°57'0 0.0
2017-Nov-16 00:55N 53°30' E 009°57'0 0.0
2017-Nov-16 00:28N 53°30' E 009°57'0 0.0
2017-Nov-15 23:58N 53°30' E 009°57'0 0.0
2017-Nov-15 23:28N 53°30' E 009°57'0 0.0
2017-Nov-15 23:00N 53°30' E 009°57'0 0.0
2017-Nov-15 22:30N 53°30' E 009°57'0 0.0
2017-Nov-15 21:57N 53°30' E 009°57'0 0.0
2017-Nov-15 21:30N 53°30' E 009°57'0 0.0
2017-Nov-15 21:00N 53°30' E 009°57'0 0.0
2017-Nov-15 20:29N 53°30' E 009°57'0 0.0
2017-Nov-15 19:59N 53°30' E 009°57'0 0.0
2017-Nov-15 19:29N 53°30' E 009°57'0 0.0
2017-Nov-15 18:59N 53°30' E 009°57'0 0.0
2017-Nov-15 18:28N 53°30' E 009°57'0 0.0
2017-Nov-15 17:58N 53°30' E 009°57'0 0.0
2017-Nov-15 17:28N 53°30' E 009°57'0 0.0
2017-Nov-15 16:58N 53°30' E 009°57'0 0.0
2017-Nov-15 16:28N 53°30' E 009°57'0 0.0
2017-Nov-15 16:00N 53°30' E 009°57'0 0.0
2017-Nov-15 15:30N 53°30' E 009°57'0 0.0
2017-Nov-15 15:00N 53°30' E 009°57'0 0.0
2017-Nov-15 14:30N 53°30' E 009°57'0 0.0
2017-Nov-15 14:00N 53°30' E 009°57'0 0.0
2017-Nov-15 13:29N 53°30' E 009°57'0 0.0
2017-Nov-15 12:59N 53°30' E 009°57'0 0.0
2017-Nov-15 12:29N 53°30' E 009°57'0 0.0
2017-Nov-15 11:56N 53°30' E 009°57'0 0.0
2017-Nov-15 11:28N 53°30' E 009°57'0 0.0
2017-Nov-15 10:58N 53°30' E 009°57'0 0.5
2017-Nov-15 10:30N 53°30' E 009°57'3 6.2
2017-Nov-15 10:01N 53°32' E 009°53'5 9.6
2017-Nov-15 09:31N 53°34' E 009°45'510.7
2017-Nov-15 09:01N 53°35' E 009°37'611.8
2017-Nov-15 08:30N 53°40' E 009°31'713.4
2017-Nov-15 08:00N 53°45' E 009°24'713.8
2017-Nov-15 07:30N 53°51' E 009°18'612.9
2017-Nov-15 07:00N 53°53' E 009°08'612.5
2017-Nov-15 06:30N 53°51' E 008°58'612.3
2017-Nov-15 06:01N 53°50' E 008°47'611.3
2017-Nov-15 05:30N 53°55' E 008°41'611.5
2017-Nov-15 05:00N 53°58' E 008°33'612.0
2017-Nov-15 04:30N 53°59' E 008°23'612.7
2017-Nov-15 04:01N 53°60' E 008°12'510.4
2017-Nov-15 03:30N 53°58' E 008°04'612.1
2017-Nov-15 03:00N 53°54' E 007°55'5 5.3
2017-Nov-15 02:05N 53°51' E 008°01'112.6
2017-Nov-15 02:00N 53°51' E 008°03'713.5
2017-Nov-15 01:30N 53°46' E 008°11'714.3
2017-Nov-15 01:00N 53°42' E 008°21'714.6
2017-Nov-15 00:30N 53°37' E 008°30'611.3
2017-Nov-15 00:00N 53°31' E 008°34'611.1
2017-Nov-14 23:30N 53°26' E 008°30'612.1
2017-Nov-14 23:00N 53°20' E 008°30'0 0.2
2017-Nov-14 22:30N 53°20' E 008°30'0 0.0
2017-Nov-14 22:00N 53°20' E 008°30'0 0.0
2017-Nov-14 21:27N 53°20' E 008°30'0 0.0
2017-Nov-14 20:56N 53°20' E 008°30'0 0.0
2017-Nov-14 20:29N 53°20' E 008°30'0 0.0
2017-Nov-14 19:59N 53°20' E 008°30'0 0.0
2017-Nov-14 19:29N 53°20' E 008°30'0 0.0
2017-Nov-14 18:59N 53°20' E 008°30'0 0.0
2017-Nov-14 18:28N 53°20' E 008°30'0 0.0
2017-Nov-14 17:58N 53°20' E 008°30'0 0.0
2017-Nov-14 17:28N 53°20' E 008°30'0 0.0
2017-Nov-14 16:58N 53°20' E 008°30'0 0.0
2017-Nov-14 16:27N 53°20' E 008°30'0 0.0
2017-Nov-14 15:57N 53°20' E 008°30'0 0.0
2017-Nov-14 15:30N 53°20' E 008°30'0 0.0
2017-Nov-14 15:00N 53°20' E 008°30'0 0.0
2017-Nov-14 14:30N 53°20' E 008°30'0 0.0
2017-Nov-14 13:56N 53°20' E 008°30'0 0.0
2017-Nov-14 13:29N 53°20' E 008°30'0 0.0
2017-Nov-14 12:59N 53°20' E 008°30'0 0.0
2017-Nov-14 12:29N 53°20' E 008°30'0 0.0
2017-Nov-14 11:59N 53°20' E 008°30'0 0.0
2017-Nov-14 11:22N 53°20' E 008°30'0 0.0
2017-Nov-14 10:55N 53°20' E 008°30'0 0.0
2017-Nov-14 10:28N 53°20' E 008°30'0 0.0
2017-Nov-14 09:58N 53°20' E 008°30'  

Dump ship's entire track history